Time;durP1;ratioP1;P1;durP2;ratioP2;P2;SDS_P1;SDS_P2;PMS_P1;PMS_P2;Temp;Humidity;BMP_temperature;BMP_pressure;BME280_temperature;BME280_humidity;BME280_pressure;Samples;Min_cycle;Max_cycle;Signal;HPM_P1;HPM_P2
2022/06/06 00:01:11;;;;;;;0.10;0.10;;;;;;;21.25;45.18;101020.09;5099416;28;20083;-34
2022/06/06 00:03:36;;;;;;;0.10;0.10;;;;;;;21.24;45.04;101024.81;5131926;28;20086;-34
2022/06/06 00:06:08;;;;;;;0.10;0.10;;;;;;;21.25;45.21;101025.63;5128992;27;20069;-33
2022/06/06 00:08:33;;;;;;;0.10;0.10;;;;;;;21.24;45.03;101022.06;5130077;28;20098;-33
2022/06/06 00:10:59;;;;;;;0.10;0.10;;;;;;;21.25;45.08;101020.91;5131665;28;20115;-34
2022/06/06 00:13:24;;;;;;;0.10;0.10;;;;;;;21.25;45.01;101022.88;5128334;28;20043;-33
2022/06/06 00:15:50;;;;;;;0.10;0.10;;;;;;;21.24;45.06;101023.97;5130825;28;20047;-34
2022/06/06 00:18:16;;;;;;;0.10;0.10;;;;;;;21.24;45.19;101024.81;5127904;28;20046;-33
2022/06/06 00:20:41;;;;;;;0.20;0.20;;;;;;;21.24;45.22;101016.50;5130776;28;20061;-34
2022/06/06 00:23:07;;;;;;;0.10;0.10;;;;;;;21.24;45.28;101018.44;5130965;28;20054;-34
2022/06/06 00:25:33;;;;;;;0.10;0.10;;;;;;;21.24;45.19;101012.88;5131394;28;20083;-33
2022/06/06 00:27:58;;;;;;;0.10;0.10;;;;;;;21.24;45.15;101010.97;5127960;28;20043;-34
2022/06/06 00:30:24;;;;;;;0.10;0.10;;;;;;;21.23;44.92;101025.09;5129589;28;20122;-33
2022/06/06 00:35:36;;;;;;;0.10;0.10;;;;;;;21.23;45.17;101025.91;5112405;28;20043;-34
2022/06/06 00:38:02;;;;;;;0.10;0.10;;;;;;;21.23;45.19;101031.44;5128772;28;20064;-34
2022/06/06 00:40:28;;;;;;;0.10;0.10;;;;;;;21.24;45.14;101023.97;5132029;28;20067;-33
2022/06/06 00:42:53;;;;;;;0.10;0.10;;;;;;;21.24;45.02;101022.06;5129962;28;20141;-34
2022/06/06 00:48:03;;;;;;;0.10;0.10;;;;;;;21.24;45.17;101018.44;5161683;27;20206;-34
2022/06/06 00:50:37;;;;;;;0.10;0.10;;;;;;;21.23;45.31;101009.28;5167031;27;20378;-33
2022/06/06 00:53:03;;;;;;;0.10;0.10;;;;;;;21.23;45.22;101009.28;5161882;27;20082;-34
2022/06/06 00:55:32;;;;;;;0.10;0.10;;;;;;;21.23;45.32;101005.69;5167564;27;20042;-33
2022/06/06 00:58:02;;;;;;;0.10;0.10;;;;;;;21.24;45.21;101008.19;5144106;27;20074;-33
2022/06/06 01:00:28;;;;;;;0.10;0.10;;;;;;;21.23;45.11;101003.75;5146600;27;20073;-33
2022/06/06 01:02:56;;;;;;;0.10;0.10;;;;;;;21.24;45.16;101013.75;5145486;27;20078;-33
2022/06/06 01:05:23;;;;;;;0.10;0.10;;;;;;;21.23;45.26;101003.75;5162992;27;20078;-33
2022/06/06 01:07:48;;;;;;;0.10;0.10;;;;;;;21.24;45.28;101010.13;5161066;27;20085;-33
2022/06/06 01:10:15;;;;;;;0.10;0.10;;;;;;;21.23;45.19;101000.16;5164958;27;20153;-33
2022/06/06 01:12:42;;;;;;;0.10;0.10;;;;;;;21.23;45.30;101003.75;5164027;27;20079;-33
2022/06/06 01:15:09;;;;;;;0.10;0.10;;;;;;;21.24;45.15;101007.34;5163760;27;20126;-33
2022/06/06 01:17:51;;;;;;;0.10;0.10;;;;;;;21.23;45.23;101012.06;5162023;27;20047;-33
2022/06/06 01:20:46;;;;;;;0.10;0.10;;;;;;;21.22;45.09;101015.97;5160392;27;20068;-33
2022/06/06 01:23:40;;;;;;;0.10;0.10;;;;;;;21.23;45.31;101012.06;5166700;27;20080;-33
2022/06/06 01:26:31;;;;;;;0.10;0.10;;;;;;;21.22;45.25;101010.41;5150720;27;20038;-33
2022/06/06 01:29:03;;;;;;;0.10;0.10;;;;;;;21.22;45.39;101015.97;5147539;27;20129;-33
2022/06/06 01:31:50;;;;;;;0.10;0.10;;;;;;;21.22;45.24;101015.13;5145894;27;20479;-33
2022/06/06 01:34:26;;;;;;;0.10;0.10;;;;;;;21.21;45.15;101017.09;5148727;27;20099;-33
2022/06/06 01:36:53;;;;;;;0.10;0.10;;;;;;;21.22;45.06;101017.91;5143984;27;20165;-33
2022/06/06 01:39:20;;;;;;;0.10;0.10;;;;;;;21.23;45.20;101012.06;5160690;27;20083;-33
2022/06/06 01:41:54;;;;;;;0.10;0.10;;;;;;;21.23;45.33;101014.00;5154212;27;20071;-33
2022/06/06 01:44:50;;;;;;;0.10;0.10;;;;;;;21.23;45.16;101014.00;5141924;27;20077;-34
2022/06/06 01:47:22;;;;;;;0.10;0.10;;;;;;;21.22;45.23;101015.13;5129803;27;20074;-33
2022/06/06 01:49:47;;;;;;;0.10;0.10;;;;;;;21.21;45.13;101000.47;5140727;27;20100;-34
2022/06/06 01:52:14;;;;;;;0.10;0.10;;;;;;;21.23;45.08;101000.16;5141794;27;20047;-34
2022/06/06 01:54:41;;;;;;;0.10;0.10;;;;;;;21.22;45.29;100999.34;5144292;27;20077;-34
2022/06/06 01:57:10;;;;;;;0.10;0.10;;;;;;;21.22;45.22;100996.56;5143540;27;20404;-33
2022/06/06 01:59:35;;;;;;;0.10;0.10;;;;;;;21.22;45.25;100993.81;5124716;28;20079;-33
2022/06/06 02:02:01;;;;;;;0.10;0.10;;;;;;;21.23;45.08;100994.63;5126204;28;20043;-33
2022/06/06 02:04:27;;;;;;;0.10;0.10;;;;;;;21.23;45.14;100997.41;5130121;28;20113;-34
2022/06/06 02:06:52;;;;;;;0.10;0.10;;;;;;;21.23;45.21;100997.41;5129150;28;20039;-35
2022/06/06 02:09:19;;;;;;;0.10;0.10;;;;;;;21.23;45.24;100991.84;5132285;28;20070;-34
2022/06/06 02:11:45;;;;;;;0.10;0.10;;;;;;;21.23;45.22;100991.84;5129103;28;20079;-34
2022/06/06 02:14:11;;;;;;;0.10;0.10;;;;;;;21.23;45.20;100989.09;5125078;28;20054;-33
2022/06/06 02:16:38;;;;;;;0.10;0.10;;;;;;;21.23;45.08;100989.09;5129789;28;20542;-33
2022/06/06 02:19:05;;;;;;;0.10;0.10;;;;;;;21.22;45.21;100985.50;5107958;28;20039;-33
2022/06/06 02:21:32;;;;;;;0.10;0.10;;;;;;;21.22;45.31;100984.66;5131606;28;20078;-34
2022/06/06 02:23:59;;;;;;;0.10;0.10;;;;;;;21.22;45.29;100996.56;5128134;28;20075;-33
2022/06/06 02:26:24;;;;;;;0.10;0.10;;;;;;;21.22;45.26;100995.75;5132024;28;20070;-34
2022/06/06 02:28:50;;;;;;;0.10;0.10;;;;;;;21.22;45.37;100996.56;5131391;28;20435;-34
2022/06/06 02:31:16;;;;;;;0.10;0.10;;;;;;;21.21;45.30;101000.47;5131288;28;20039;-34
2022/06/06 02:33:42;;;;;;;0.10;0.10;;;;;;;21.22;45.31;101002.09;5128094;28;20035;-34
2022/06/06 02:36:08;;;;;;;0.10;0.10;;;;;;;21.22;45.26;101001.28;5128768;28;20413;-34
2022/06/06 02:38:34;;;;;;;0.20;0.20;;;;;;;21.22;45.23;101004.88;5127491;28;20127;-33
2022/06/06 02:41:07;;;;;;;0.10;0.10;;;;;;;21.22;45.23;101001.28;5127110;28;20074;-34
2022/06/06 02:43:36;;;;;;;0.10;0.10;;;;;;;21.23;45.19;101002.94;5129722;27;20152;-34
2022/06/06 02:46:03;;;;;;;0.10;0.10;;;;;;;21.22;45.14;100993.81;5126194;28;20083;-34
2022/06/06 02:48:30;;;;;;;0.10;0.10;;;;;;;21.21;45.29;101000.47;5122394;28;20139;-33
2022/06/06 02:50:56;;;;;;;0.10;0.10;;;;;;;21.23;45.22;101008.47;5112551;28;20077;-33
2022/06/06 02:53:22;;;;;;;0.10;0.10;;;;;;;21.22;45.27;101001.28;5111028;28;20153;-33
2022/06/06 02:55:52;;;;;;;0.13;0.13;;;;;;;21.21;45.11;101006.00;5131161;28;20099;-33
2022/06/06 02:58:20;;;;;;;0.10;0.10;;;;;;;21.21;45.27;101006.00;5128908;28;20047;-33
2022/06/06 03:00:46;;;;;;;;;;;;;;;21.22;45.43;101006.81;5107081;28;20092;-33
2022/06/06 03:03:12;;;;;;;0.10;0.10;;;;;;;21.19;45.44;101008.22;5105706;28;20273;-33
2022/06/06 03:05:54;;;;;;;0.10;0.10;;;;;;;21.21;45.31;101006.00;5123816;28;20480;-34
2022/06/06 03:08:52;;;;;;;0.10;0.10;;;;;;;21.21;45.44;100999.66;5125846;28;20477;-33
2022/06/06 03:11:58;;;;;;;0.10;0.10;;;;;;;21.19;45.33;100997.16;5117121;28;20074;-33
2022/06/06 03:14:42;;;;;;;0.10;0.10;;;;;;;21.21;45.34;100988.56;5099874;28;20425;-33
2022/06/06 03:20:54;;;;;;;0.10;0.10;;;;;;;21.19;45.36;100986.06;5114963;28;20039;-33
2022/06/06 03:23:39;;;;;;;0.10;0.10;;;;;;;21.21;45.41;100991.34;5101685;28;20468;-33
2022/06/06 03:26:31;;;;;;;0.10;0.10;;;;;;;21.21;45.21;101005.19;5112240;28;20062;-33
2022/06/06 03:29:37;;;;;;;0.10;0.10;;;;;;;21.20;45.24;100996.06;5113513;28;20086;-33
2022/06/06 03:32:20;;;;;;;0.10;0.10;;;;;;;21.22;45.39;101009.59;5104989;28;20383;-33
2022/06/06 03:34:59;;;;;;;0.10;0.10;;;;;;;21.21;45.35;100997.69;5126450;28;20047;-33
2022/06/06 03:37:49;;;;;;;0.10;0.10;;;;;;;21.20;45.33;101001.59;5126606;28;20510;-32
2022/06/06 03:40:23;;;;;;;0.10;0.10;;;;;;;21.21;45.47;101003.25;5115472;28;20147;-33
2022/06/06 03:45:52;;;;;;;0.10;0.10;;;;;;;21.25;45.04;101003.47;5164504;27;20454;-33
2022/06/06 03:48:37;;;;;;;0.10;0.10;;;;;;;21.24;45.33;101010.97;5163352;27;20038;-33
2022/06/06 03:51:13;;;;;;;0.10;0.10;;;;;;;21.24;45.26;101023.97;5165531;27;20054;-33
2022/06/06 03:54:05;;;;;;;0.10;0.10;;;;;;;21.22;45.39;101024.28;5164709;27;20078;-33
2022/06/06 03:56:41;;;;;;;0.10;0.10;;;;;;;21.21;45.46;101030.94;5164782;27;20154;-33
2022/06/06 03:59:08;;;;;;;0.10;0.10;;;;;;;21.21;45.24;101027.34;5165828;27;20480;-32
2022/06/06 04:01:36;;;;;;;0.10;0.10;;;;;;;21.22;45.25;101038.13;5146379;27;20179;-33
2022/06/06 04:04:02;;;;;;;0.10;0.10;;;;;;;21.22;45.33;101037.28;5144565;27;20056;-33
2022/06/06 04:06:28;;;;;;;0.10;0.10;;;;;;;21.21;45.18;101036.47;5146804;27;20038;-33
2022/06/06 04:08:54;;;;;;;0.10;0.10;;;;;;;21.21;45.42;101044.78;5165850;27;20434;-33
2022/06/06 04:11:30;;;;;;;0.10;0.10;;;;;;;21.21;45.47;101036.47;5163533;27;20049;-33
2022/06/06 04:14:23;;;;;;;0.10;0.10;;;;;;;21.21;45.31;101041.19;5163019;27;20067;-32
2022/06/06 04:16:57;;;;;;;0.10;0.10;;;;;;;21.21;45.48;101043.97;5149602;27;20039;-32
2022/06/06 04:19:48;;;;;;;0.10;0.10;;;;;;;21.20;45.34;101042.28;5164567;27;20077;-32
2022/06/06 04:22:35;;;;;;;0.10;0.10;;;;;;;21.21;45.25;101057.81;5153157;27;20074;-32
2022/06/06 04:31:10;;;;;;;0.10;0.10;;;;;;;21.20;45.36;101039.50;5166952;27;20217;-33
2022/06/06 04:34:01;;;;;;;0.17;0.17;;;;;;;21.21;45.34;101043.97;5142905;27;20077;-33
2022/06/06 04:36:39;;;;;;;0.10;0.10;;;;;;;21.20;45.29;101045.91;5144005;27;20078;-32
2022/06/06 04:41:56;;;;;;;0.10;0.10;;;;;;;21.19;45.39;101038.69;5180480;27;20140;-32
2022/06/06 04:44:43;;;;;;;0.10;0.10;;;;;;;21.20;45.40;101036.75;5149880;27;20137;-32
2022/06/06 04:47:19;;;;;;;0.10;0.10;;;;;;;21.20;45.33;101043.13;5132629;27;20074;-32
2022/06/06 04:49:45;;;;;;;0.10;0.10;;;;;;;21.19;45.46;101035.91;5110722;27;20138;-33
2022/06/06 04:52:11;;;;;;;0.10;0.10;;;;;;;21.19;45.34;101047.00;5147782;27;20119;-33
2022/06/06 04:54:39;;;;;;;0.10;0.10;;;;;;;21.19;45.23;101044.22;5148290;27;20043;-32
2022/06/06 04:57:05;;;;;;;0.10;0.10;;;;;;;21.20;45.42;101045.06;5135439;27;20070;-32
2022/06/06 04:59:31;;;;;;;0.10;0.10;;;;;;;21.19;45.52;101044.22;5150489;27;20097;-33
2022/06/06 05:01:59;;;;;;;0.10;0.10;;;;;;;21.20;45.32;101059.75;5149670;27;20465;-32
2022/06/06 05:04:24;;;;;;;0.10;0.10;;;;;;;21.19;45.39;101049.78;5147013;27;20542;-32
2022/06/06 05:07:24;;;;;;;0.38;0.30;;;;;;;21.19;45.37;101058.09;5147262;27;20095;-33
2022/06/06 05:10:04;;;;;;;0.10;0.10;;;;;;;21.20;45.25;101058.91;5133125;27;20137;-33
2022/06/06 05:13:10;;;;;;;0.10;0.10;;;;;;;21.20;45.40;101067.22;5147499;27;20043;-32
2022/06/06 05:16:06;;;;;;;0.10;0.10;;;;;;;21.19;45.42;101063.63;5122423;27;20062;-33
2022/06/06 05:18:42;;;;;;;0.10;0.10;;;;;;;21.18;45.43;101070.28;5137310;27;20039;-33
2022/06/06 05:21:48;;;;;;;0.10;0.10;;;;;;;21.18;45.40;101064.75;5147574;27;20098;-33
2022/06/06 05:24:53;;;;;;;0.10;0.10;;;;;;;21.19;45.48;101068.34;5138530;27;20084;-32
2022/06/06 05:27:59;;;;;;;0.10;0.10;;;;;;;21.18;45.34;101066.69;5134250;27;20188;-32
2022/06/06 05:30:38;;;;;;;0.10;0.10;;;;;;;21.19;45.52;101068.34;5127161;27;20133;-33
2022/06/06 05:33:11;;;;;;;0.10;0.10;;;;;;;21.18;45.58;101064.75;5125614;27;20120;-33
2022/06/06 05:35:59;;;;;;;0.10;0.10;;;;;;;21.18;45.40;101073.06;5153338;27;20066;-32
2022/06/06 05:38:42;;;;;;;0.10;0.10;;;;;;;21.18;45.48;101075.81;5150621;27;20488;-33
2022/06/06 05:41:33;;;;;;;0.10;0.10;;;;;;;21.18;45.34;101075.00;5144818;27;20075;-32
2022/06/06 05:44:10;;;;;;;0.10;0.10;;;;;;;21.18;45.49;101078.59;5117650;27;20525;-33
2022/06/06 05:46:44;;;;;;;0.10;0.10;;;;;;;21.18;45.35;101075.81;5132178;27;20036;-33
2022/06/06 05:49:30;;;;;;;0.10;0.10;;;;;;;21.18;45.42;101086.91;5131758;27;20038;-32
2022/06/06 05:52:30;;;;;;;0.10;0.10;;;;;;;21.18;45.35;101081.34;5107562;28;20108;-33
2022/06/06 05:55:24;;;;;;;0.10;0.10;;;;;;;21.19;45.60;101079.41;5106623;28;20462;-33
2022/06/06 05:58:13;;;;;;;0.20;0.20;;;;;;;21.19;45.28;101085.78;5124104;28;20140;-33
2022/06/06 06:01:13;;;;;;;0.10;0.10;;;;;;;21.19;45.57;101082.19;5104537;28;20082;-33
2022/06/06 06:06:22;;;;;;;0.10;0.10;;;;;;;21.19;45.34;101084.94;5175611;27;20201;-33
2022/06/06 06:09:14;;;;;;;0.10;0.10;;;;;;;21.18;45.36;101086.91;5127318;27;20071;-33
2022/06/06 06:12:19;;;;;;;0.10;0.10;;;;;;;21.18;45.67;101088.84;5132820;27;20077;-34
2022/06/06 06:15:03;;;;;;;0.10;0.10;;;;;;;21.17;45.37;101082.47;5136929;27;20050;-33
2022/06/06 06:17:31;;;;;;;0.10;0.10;;;;;;;21.18;45.54;101088.84;5149607;27;20047;-33
2022/06/06 06:20:06;;;;;;;0.10;0.10;;;;;;;21.17;45.54;101096.34;5151350;27;21335;-32
2022/06/06 06:22:38;;;;;;;0.10;0.10;;;;;;;21.18;45.29;101097.97;5124826;27;20325;-33
2022/06/06 06:25:05;;;;;;;0.10;0.10;;;;;;;21.19;45.43;101109.88;5150515;27;20086;-32
2022/06/06 06:27:33;;;;;;;0.10;0.10;;;;;;;21.18;45.33;101116.53;5149681;27;20405;-33
2022/06/06 06:29:59;;;;;;;0.10;0.10;;;;;;;21.18;45.57;101117.38;5149962;27;20095;-33
2022/06/06 06:32:57;;;;;;;0.10;0.10;;;;;;;21.19;45.27;101104.34;5151209;27;20106;-33
2022/06/06 06:35:26;;;;;;;;;;;;;;;21.18;45.53;101113.78;5141243;27;20501;-33
2022/06/06 06:38:05;;;;;;;0.10;0.10;;;;;;;21.17;45.55;101118.50;5148749;27;20031;-32
2022/06/06 06:40:43;;;;;;;0.10;0.10;;;;;;;21.17;45.37;101112.94;5148387;27;20087;-32
2022/06/06 06:43:14;;;;;;;;;;;;;;;21.18;45.41;101113.78;5152944;27;20125;-32
2022/06/06 06:45:44;;;;;;;0.10;0.10;;;;;;;21.17;45.50;101112.94;5150846;27;19927;-32
2022/06/06 06:48:12;;;;;;;0.10;0.10;;;;;;;21.16;45.41;101103.00;5120426;27;20047;-32
2022/06/06 06:50:59;;;;;;;0.10;0.10;;;;;;;21.17;45.63;101115.72;5149647;27;20039;-32
2022/06/06 06:53:56;;;;;;;0.10;0.10;;;;;;;21.17;45.47;101109.34;5148868;27;20097;-32
2022/06/06 06:56:50;;;;;;;0.10;0.10;;;;;;;21.17;45.44;101115.72;5135413;27;20086;-33
2022/06/06 06:59:40;;;;;;;0.10;0.10;;;;;;;21.18;45.58;101117.38;5133788;27;20107;-32
2022/06/06 07:08:36;;;;;;;0.10;0.10;;;;;;;21.17;45.54;101123.22;5128906;27;20058;-33
2022/06/06 07:11:25;;;;;;;0.10;0.10;;;;;;;21.17;45.49;101125.97;5152619;27;20077;-33
2022/06/06 07:14:17;;;;;;;0.15;0.15;;;;;;;21.17;45.52;101129.56;5123010;27;20075;-33
2022/06/06 07:16:43;;;;;;;0.10;0.10;;;;;;;21.17;45.53;101121.25;5127195;27;20486;-32
2022/06/06 07:19:18;;;;;;;0.10;0.10;;;;;;;21.16;45.49;101125.16;5138557;27;20130;-33
2022/06/06 07:21:45;;;;;;;0.10;0.10;;;;;;;21.17;45.38;101120.44;5134284;27;20066;-33
2022/06/06 07:24:15;;;;;;;0.10;0.10;;;;;;;21.17;45.46;101125.97;5133053;27;20078;-33
2022/06/06 07:26:42;;;;;;;0.10;0.10;;;;;;;21.16;45.52;101125.16;5133068;27;20480;-32
2022/06/06 07:29:11;;;;;;;0.10;0.10;;;;;;;21.17;45.53;101125.97;5118133;27;20085;-33
2022/06/06 07:31:46;;;;;;;0.10;0.10;;;;;;;21.17;45.60;101114.91;5112822;27;20046;-33
2022/06/06 07:34:55;;;;;;;0.10;0.10;;;;;;;21.17;45.35;101126.78;5135571;27;20047;-33
2022/06/06 07:37:37;;;;;;;0.10;0.10;;;;;;;21.17;45.66;101123.22;5109064;27;20091;-33
2022/06/06 07:40:43;;;;;;;0.10;0.10;;;;;;;21.17;45.45;101125.97;5136987;27;20080;-33
2022/06/06 07:43:31;;;;;;;0.10;0.10;;;;;;;21.17;45.55;101126.78;5115353;28;20098;-33
2022/06/06 07:46:38;;;;;;;0.10;0.10;;;;;;;21.17;45.37;101124.03;5118329;28;20458;-33
2022/06/06 07:49:21;;;;;;;0.10;0.10;;;;;;;21.17;45.60;101114.91;5098881;28;20375;-33
2022/06/06 07:51:54;;;;;;;0.10;0.10;;;;;;;21.16;45.37;101111.31;5094001;28;20047;-33
2022/06/06 07:55:00;;;;;;;0.10;0.10;;;;;;;21.16;45.66;101107.72;5112209;28;20083;-32
2022/06/06 07:57:35;;;;;;;0.10;0.10;;;;;;;21.18;45.54;101108.22;5101765;28;20087;-32
2022/06/06 08:00:09;;;;;;;0.10;0.10;;;;;;;21.16;45.56;101111.31;5115818;28;20058;-33
2022/06/06 08:02:49;;;;;;;0.10;0.10;;;;;;;21.17;45.54;101096.34;5123412;28;20512;-33
2022/06/06 08:05:43;;;;;;;0.10;0.10;;;;;;;21.17;45.44;101103.81;5117296;28;20079;-33
2022/06/06 08:08:18;;;;;;;0.15;0.15;;;;;;;21.16;45.61;101102.16;5097459;28;20138;-32
2022/06/06 08:10:45;;;;;;;0.10;0.10;;;;;;;21.17;45.51;101101.03;5120276;28;20184;-33
2022/06/06 08:13:52;;;;;;;0.10;0.10;;;;;;;21.17;45.44;101101.03;5112301;28;20036;-33
2022/06/06 08:16:42;;;;;;;0.15;0.15;;;;;;;21.16;45.62;101105.75;5096171;28;20486;-33
2022/06/06 08:19:48;;;;;;;0.10;0.10;;;;;;;21.16;45.59;101104.94;5103012;28;20501;-33
2022/06/06 08:22:15;;;;;;;0.10;0.10;;;;;;;21.17;45.67;101117.66;5098788;28;20085;-33
2022/06/06 08:24:43;;;;;;;0.10;0.10;;;;;;;21.16;45.38;101105.75;5115831;28;20040;-34
2022/06/06 08:27:19;;;;;;;0.10;0.10;;;;;;;21.17;45.57;101112.13;5113498;28;20076;-33
2022/06/06 08:29:47;;;;;;;0.10;0.10;;;;;;;21.16;45.43;101111.31;5118251;28;20477;-33
2022/06/06 08:32:14;;;;;;;0.10;0.10;;;;;;;21.17;45.55;101112.13;5119441;28;20681;-33
2022/06/06 08:34:40;;;;;;;0.10;0.10;;;;;;;21.16;45.54;101114.06;5111789;28;20434;-33
2022/06/06 08:37:18;;;;;;;0.10;0.10;;;;;;;21.16;45.46;101111.31;5108766;28;20066;-33
2022/06/06 08:40:19;;;;;;;0.10;0.10;;;;;;;21.16;45.43;101107.72;5111039;28;20486;-33
2022/06/06 08:50:44;;;;;;;0.10;0.10;;;;;;;21.16;45.47;101107.72;5157065;27;20648;-32
2022/06/06 08:52:10;;;;;;;0.10;0.10;;;;;;;21.16;45.38;101110.47;5133316;27;20077;-32
2022/06/06 08:55:16;;;;;;;0.10;0.10;;;;;;;21.17;45.55;101106.59;5157830;27;20082;-32
2022/06/06 08:58:21;;;;;;;0.15;0.15;;;;;;;21.16;45.58;101099.41;5124454;27;20081;-32
2022/06/06 09:01:11;;;;;;;0.10;0.10;;;;;;;21.17;45.47;101109.34;5146470;27;20138;-33
2022/06/06 09:04:21;;;;;;;0.10;0.10;;;;;;;21.15;45.61;101103.25;5127665;27;20062;-33
2022/06/06 09:07:28;;;;;;;0.10;0.10;;;;;;;21.16;45.66;101110.47;5142756;27;20462;-32
2022/06/06 09:10:33;;;;;;;0.10;0.10;;;;;;;21.16;45.66;101108.53;5138684;27;20446;-32
2022/06/06 09:13:28;;;;;;;0.10;0.10;;;;;;;21.16;45.43;101114.06;5131509;27;20483;-34
2022/06/06 09:16:20;;;;;;;0.10;0.10;;;;;;;21.16;45.55;101102.16;5144941;27;20484;-34
2022/06/06 09:19:26;;;;;;;0.10;0.10;;;;;;;21.16;45.52;101116.03;5143631;27;20039;-33
2022/06/06 09:22:19;;;;;;;0.10;0.10;;;;;;;21.15;45.68;101125.41;5138791;27;20074;-33
2022/06/06 09:28:36;;;;;;;0.10;0.10;;;;;;;21.15;45.68;101115.16;5161121;27;20205;-32
2022/06/06 09:31:42;;;;;;;0.10;0.10;;;;;;;21.16;45.47;101116.03;5132641;27;20137;-33
2022/06/06 09:34:46;;;;;;;0.13;0.13;;;;;;;21.16;45.38;101122.38;5123560;27;20078;-32
2022/06/06 09:37:37;;;;;;;0.10;0.10;;;;;;;21.16;45.45;101122.38;5133935;27;20038;-33
2022/06/06 09:40:18;;;;;;;0.10;0.10;;;;;;;21.15;45.65;101125.41;5124462;27;20126;-33
2022/06/06 09:43:03;;;;;;;0.10;0.10;;;;;;;21.16;45.43;101119.63;5141084;27;20078;-33
2022/06/06 09:45:39;;;;;;;0.10;0.10;;;;;;;21.16;45.53;101121.56;5135221;27;20077;-33
2022/06/06 09:48:37;;;;;;;0.10;0.10;;;;;;;21.16;45.62;101110.47;5135937;27;20133;-33
2022/06/06 09:51:43;;;;;;;0.10;0.10;;;;;;;21.15;45.51;101112.41;5122649;27;20131;-33
2022/06/06 10:01:11;;;;;;;0.10;0.10;;;;;;;21.17;45.57;101101.03;5115910;27;20043;-33
2022/06/06 10:04:07;;;;;;;0.10;0.10;;;;;;;21.16;45.66;101096.63;5116612;27;20073;-33
2022/06/06 10:07:13;;;;;;;0.10;0.10;;;;;;;21.15;45.52;101098.53;5125432;27;20070;-32
2022/06/06 10:09:53;;;;;;;0.10;0.10;;;;;;;21.15;45.65;101093.00;5119359;27;20686;-33
2022/06/06 10:12:42;;;;;;;0.10;0.10;;;;;;;21.18;45.73;101097.16;5137536;27;20075;-33
2022/06/06 10:15:22;;;;;;;0.17;0.17;;;;;;;21.17;45.68;101089.97;5115333;27;20082;-32
2022/06/06 10:18:17;;;;;;;0.10;0.10;;;;;;;21.16;45.50;101074.47;5135716;27;20083;-32
2022/06/06 10:20:55;;;;;;;0.10;0.10;;;;;;;21.16;45.56;101067.00;5124036;27;20089;-32
2022/06/06 10:23:31;;;;;;;0.10;0.10;;;;;;;21.16;45.49;101055.91;5119970;27;20086;-32
2022/06/06 10:26:27;;;;;;;0.10;0.10;;;;;;;21.15;45.75;101057.00;5118138;27;20520;-32
2022/06/06 10:29:27;;;;;;;0.10;0.10;;;;;;;21.17;45.50;101073.34;5123540;27;20470;-33
2022/06/06 10:32:11;;;;;;;0.10;0.10;;;;;;;21.15;45.69;101068.09;5119803;27;20083;-32
2022/06/06 10:35:08;;;;;;;0.20;0.20;;;;;;;21.17;45.49;101062.28;5104095;27;20466;-33
2022/06/06 10:38:14;;;;;;;0.10;0.10;;;;;;;21.17;45.69;101054.78;5116612;27;20047;-32
2022/06/06 10:43:45;;;;;;;0.10;0.10;;;;;;;21.17;45.44;101065.03;5169432;27;20120;-32
2022/06/06 10:46:25;;;;;;;0.10;0.10;;;;;;;21.17;45.63;101060.31;5154742;27;20082;-32
2022/06/06 10:52:15;;;;;;;0.10;0.10;;;;;;;21.22;45.39;101053.91;5168585;27;20502;-32
2022/06/06 10:55:07;;;;;;;0.10;0.10;;;;;;;21.21;45.46;101057.81;5133298;27;20072;-33
2022/06/06 10:58:13;;;;;;;0.10;0.10;;;;;;;21.18;45.51;101052.84;5150285;27;20039;-33
2022/06/06 11:01:08;;;;;;;0.10;0.10;;;;;;;21.17;45.67;101049.25;5124861;27;20099;-32
2022/06/06 11:06:48;;;;;;;0.17;0.17;;;;;;;21.17;45.55;101052.03;5162277;27;20197;-32
2022/06/06 11:09:46;;;;;;;0.10;0.10;;;;;;;21.17;45.60;101065.88;5146429;27;20137;-32
2022/06/06 11:12:16;;;;;;;;;;;;;;;21.18;45.53;101061.16;5151841;27;20057;-32
2022/06/06 11:14:44;;;;;;;0.10;0.10;;;;;;;21.16;45.58;101060.63;5165793;27;19961;-32
2022/06/06 11:17:49;;;;;;;0.10;0.10;;;;;;;21.17;45.62;101068.63;5166049;27;20047;-32
2022/06/06 11:20:53;;;;;;;0.10;0.10;;;;;;;21.17;45.52;101084.44;5136926;27;20070;-33
2022/06/06 11:23:43;;;;;;;0.10;0.10;;;;;;;21.17;45.54;101110.19;5151650;27;20533;-32
2022/06/06 11:29:35;;;;;;;0.10;0.10;;;;;;;21.18;45.63;101105.47;5177386;27;20116;-32
2022/06/06 11:35:07;;;;;;;0.20;0.20;;;;;;;21.17;45.63;101096.34;5176081;27;20120;-32
2022/06/06 11:38:13;;;;;;;0.10;0.10;;;;;;;21.18;45.60;101095.22;5146154;27;20485;-33
2022/06/06 11:41:04;;;;;;;0.10;0.10;;;;;;;21.17;45.61;101085.25;5133381;27;20082;-32
2022/06/06 11:43:58;;;;;;;0.10;0.10;;;;;;;21.16;45.47;101078.06;5134354;27;20090;-32
2022/06/06 11:52:51;;;;;;;0.10;0.10;;;;;;;21.17;45.66;101071.41;5166499;27;20571;-32
2022/06/06 11:55:40;;;;;;;0.10;0.10;;;;;;;21.18;45.65;101063.91;5138722;27;20062;-32
2022/06/06 11:58:38;;;;;;;0.10;0.10;;;;;;;21.17;45.59;101067.81;5147902;27;20490;-32
2022/06/06 12:01:32;;;;;;;0.10;0.10;;;;;;;21.16;45.56;101050.38;5150011;27;20473;-33
2022/06/06 12:04:23;;;;;;;0.22;0.22;;;;;;;21.19;45.74;101051.72;5144227;27;20077;-33
2022/06/06 12:07:28;;;;;;;0.10;0.10;;;;;;;21.18;45.54;101052.84;5148733;27;20067;-33
2022/06/06 12:10:22;;;;;;;0.10;0.10;;;;;;;21.16;45.62;101044.00;5145442;27;20118;-32
2022/06/06 12:13:13;;;;;;;0.10;0.10;;;;;;;21.18;45.52;101041.75;5145092;27;20070;-33
2022/06/06 12:15:52;;;;;;;0.10;0.10;;;;;;;21.18;45.45;101044.53;5146457;27;20078;-32
2022/06/06 12:18:58;;;;;;;0.10;0.10;;;;;;;21.18;45.61;101036.22;5163029;27;20057;-32
2022/06/06 12:22:03;;;;;;;0.10;0.10;;;;;;;21.17;45.63;101035.41;5136522;27;20078;-32
2022/06/06 12:27:49;;;;;;;0.10;0.10;;;;;;;21.18;45.63;101036.22;5163199;27;20211;-33
2022/06/06 12:30:34;;;;;;;0.10;0.10;;;;;;;21.18;45.71;101030.69;5159522;27;20057;-33
2022/06/06 12:33:03;;;;;;;0.10;0.10;;;;;;;21.18;45.66;101039.81;5166124;27;20406;-33
2022/06/06 12:35:54;;;;;;;0.20;0.20;;;;;;;21.19;45.54;101037.88;5165873;27;20082;-32
2022/06/06 12:38:43;;;;;;;0.10;0.10;;;;;;;21.17;45.72;101035.41;5147605;27;20559;-33
2022/06/06 12:41:47;;;;;;;0.10;0.10;;;;;;;21.17;45.49;101032.63;5150934;27;20473;-33
2022/06/06 12:44:28;;;;;;;0.10;0.10;;;;;;;21.19;45.49;101029.56;5145065;27;20097;-33
2022/06/06 12:50:20;;;;;;;0.20;0.20;;;;;;;21.18;45.59;101019.59;5177906;27;20574;-32
2022/06/06 12:53:18;;;;;;;0.10;0.10;;;;;;;21.18;45.65;101023.19;5134814;27;20043;-33
2022/06/06 12:56:20;;;;;;;0.10;0.10;;;;;;;21.17;45.51;101007.72;5135921;27;20085;-32
2022/06/06 12:59:19;;;;;;;0.10;0.10;;;;;;;21.18;45.65;101009.34;5135441;27;20134;-33
2022/06/06 13:02:10;;;;;;;0.10;0.10;;;;;;;21.18;45.74;101014.88;5132793;27;20082;-32
2022/06/06 13:05:06;;;;;;;0.10;0.10;;;;;;;21.18;45.43;101000.22;5133394;27;20465;-33
2022/06/06 13:08:11;;;;;;;0.10;0.10;;;;;;;21.18;45.64;101001.03;5130977;27;20474;-33
2022/06/06 13:11:05;;;;;;;0.10;0.10;;;;;;;21.17;45.59;101007.72;5124315;27;20078;-32
2022/06/06 13:13:44;;;;;;;0.10;0.10;;;;;;;21.18;45.46;101000.22;5138046;27;20079;-32
2022/06/06 13:19:21;;;;;;;0.10;0.10;;;;;;;21.22;45.67;100993.81;5164569;27;20470;-32
2022/06/06 13:22:00;;;;;;;0.10;0.10;;;;;;;21.22;45.73;100991.03;5147906;27;20039;-33
2022/06/06 13:24:53;;;;;;;0.10;0.10;;;;;;;21.21;45.66;100985.81;5148924;27;20051;-32
2022/06/06 13:27:30;;;;;;;0.10;0.10;;;;;;;21.22;45.62;100992.97;5136772;27;20982;-32
2022/06/06 13:29:55;;;;;;;0.10;0.10;;;;;;;21.20;45.73;100992.44;5149241;27;20077;-32
2022/06/06 13:32:53;;;;;;;0.10;0.10;;;;;;;21.20;45.63;100997.97;5147226;27;20053;-32
2022/06/06 13:35:25;;;;;;;0.10;0.10;;;;;;;21.19;45.75;100991.59;5135132;27;20523;-32
2022/06/06 13:38:13;;;;;;;0.10;0.10;;;;;;;21.20;45.77;100997.97;5146929;27;20549;-33
2022/06/06 13:40:42;;;;;;;0.10;0.10;;;;;;;21.19;45.82;101001.88;5129219;27;20067;-32
2022/06/06 13:43:23;;;;;;;0.10;0.10;;;;;;;21.20;45.71;101001.59;5150410;27;20082;-32
2022/06/06 13:46:15;;;;;;;0.10;0.10;;;;;;;21.19;45.76;100996.31;5145680;27;20042;-32
2022/06/06 13:51:37;;;;;;;0.10;0.10;;;;;;;21.18;45.75;101003.81;5167652;27;20205;-33